Thursday, February 11, 2016, 8:15 PM EST

KPTW, Pottstown Limerick Airport

Location: Royersford, PA, United States Lat: 40.233
Local Time: 8:15 PM EST ( 1:15 GMT) Lon: -75.55
Time Zone: US/Eastern Elev: 291 ft

Show me the last for .
Show Decoded

2016-02-11 19:54 METAR KPTW 120054Z AUTO 29008G15KT 10SM CLR M07/M17 A3017 RMK AO2 SLP220
                 T10721172 =
2016-02-11 18:54 METAR KPTW 112354Z AUTO 28006G18KT 10SM FEW060 M07/M17 A3014 RMK AO2 SLP210
                 60000 T10671167 11050 21067 53032 =
2016-02-11 17:54 METAR KPTW 112254Z AUTO 28009G18KT 10SM SCT045 BKN055 BKN070 M06/M16 A3011 RMK
                 AO2 PK WND 26027/2202 SLP199 T10611161 =
2016-02-11 16:54 METAR KPTW 112154Z AUTO 28014G21KT 10SM OVC060 M06/M16 A3008 RMK AO2 SLP188
                 T10561161 =
2016-02-11 15:54 METAR KPTW 112054Z AUTO 27016G29KT 10SM BKN050 OVC060 M06/M15 A3005 RMK AO2 PK
                 WND 27029/2053 SNB06E15 SLP177 P0000 60000 T10611150 53015 =
2016-02-11 14:54 METAR KPTW 111954Z AUTO 28017G25KT 10SM BKN055 OVC070 M06/M16 A3003 RMK AO2 PK
                 WND 24028/1858 SLP170 T10561156 =
2016-02-11 13:54 METAR KPTW 111854Z AUTO 29013G28KT 10SM BKN050 OVC060 M05/M15 A3001 RMK AO2 PK
                 WND 30028/1850 SLP163 T10501150 =
2016-02-11 12:54 METAR KPTW 111754Z AUTO 29013G24KT 10SM BKN050 OVC060 M06/M16 A3000 RMK AO2 PK
                 WND 26026/1705 SLP162 60000 T10611156 11056 21078 50000 =
2016-02-11 11:54 METAR KPTW 111654Z AUTO 28015G28KT 10SM BKN070 M06/M17 A3001 RMK AO2 PK WND
                 30028/1646 SLP165 T10611172 =
2016-02-11 10:54 METAR KPTW 111554Z AUTO 29016G21KT 10SM FEW055 M06/M17 A3001 RMK AO2 UPE1457
                 SLP166 P0000 T10611172 =
2016-02-11 09:54 METAR KPTW 111454Z AUTO 28014G21KT 6SM UP BKN049 M07/M17 A3000 RMK AO2 PK WND
                 27026/1437 UPB07E08B46SNB08E19 SLP162 P0000 60000 T10721167 51021 =
2016-02-11 08:54 METAR KPTW 111354Z AUTO 25004KT 8SM SCT018 SCT024 M07/M11 A2998 RMK AO2 SNE53
                 SLP156 P0000 T10721106 =
2016-02-11 08:50 METAR KPTW 111350Z AUTO 27005KT 4SM -SN SCT018 BKN024 BKN033 M07/M11 A2999 RMK
                 AO2 P0000 =
2016-02-11 08:39 METAR KPTW 111339Z AUTO 27007G14KT 1SM -SN FEW008 BKN019 OVC039 M07/M11 A2999
                 RMK AO2 P0000 T10721106 =
2016-02-11 08:09 METAR KPTW 111309Z AUTO 27005KT 3SM -SN BR BKN022 BKN029 OVC034 M08/M09 A2997
                 RMK AO2 P0000 T10781094 =
2016-02-11 07:54 METAR KPTW 111254Z AUTO 28005KT 1 1/4SM -SN BKN018 OVC023 M08/M11 A2996 RMK AO2
                 SNB15 SLP149 P0000 T10781106 =
2016-02-11 07:36 METAR KPTW 111236Z AUTO 30005KT 1 3/4SM -SN BKN022 OVC030 M08/M11 A2995 RMK AO2
                 SNB15 P0000 T10781111 =
2016-02-11 07:27 METAR KPTW 111227Z AUTO 30005KT 3SM -SN BKN026 BKN030 OVC043 M08/M11 A2995 RMK
                 AO2 SNB15 P0000 T10781111 =
2016-02-11 07:23 METAR KPTW 111223Z AUTO 29005KT 1 1/4SM -SN BKN024 BKN030 OVC043 M08/M11 A2995
                 RMK AO2 SNB15 P0000 T10781111 =
2016-02-11 07:15 METAR KPTW 111215Z AUTO 30008KT 2 1/2SM -SN BKN026 BKN037 OVC046 M08/M12 A2995
                 RMK AO2 SNB15 P0000 T10781117 =
2016-02-11 06:54 METAR KPTW 111154Z AUTO 28008KT 10SM BKN035 BKN043 OVC050 M07/M12 A2994 RMK AO2
                 SNB25E37 SLP140 P0000 60000 T10721117 11050 21078 53023 =
2016-02-11 05:54 METAR KPTW 111054Z AUTO 28006KT 10SM BKN048 M07/M12 A2991 RMK AO2 SLP131
                 T10721117 =
2016-02-11 04:54 METAR KPTW 110954Z AUTO 28007G15KT 10SM CLR M07/M11 A2989 RMK AO2 SLP124
                 T10721111 =
2016-02-11 03:54 METAR KPTW 110854Z AUTO 29006KT 10SM CLR M07/M11 A2987 RMK AO2 SLP117 T10721111
                 51005 =
2016-02-11 02:54 METAR KPTW 110754Z AUTO 27005KT 10SM FEW080 M07/M11 A2987 RMK AO2 SLP115
                 T10671111 =
2016-02-11 01:54 METAR KPTW 110654Z AUTO VRB06KT 10SM BKN085 M06/M12 A2987 RMK AO2 SLP114
                 T10611117 =
2016-02-11 00:54 METAR KPTW 110554Z AUTO 29011KT 10SM OVC049 M05/M11 A2986 RMK AO2 SLP111
                 T10501111 11017 21056 53009 =
2016-02-10 23:54 METAR KPTW 110454Z AUTO 28010G18KT 10SM OVC045 M04/M11 A2984 RMK AO2 SLP107
                 T10441106 400061044 =
2016-02-10 22:54 METAR KPTW 110354Z AUTO 28007G16KT 10SM OVC055 M04/M11 A2984 RMK AO2 SLP105
                 T10441111 =
2016-02-10 21:54 METAR KPTW 110254Z AUTO 28011G19KT 10SM BKN075 OVC100 M04/M11 A2983 RMK AO2
                 SLP101 T10391111 53010 =
2016-02-10 20:54 METAR KPTW 110154Z AUTO 28013G19KT 10SM OVC090 M03/M11 A2981 RMK AO2 SLP095
                 T10281106 =

Support USWX by starting your Amazon purchase here.